Time;durP1;ratioP1;P1;durP2;ratioP2;P2;SDS_P1;SDS_P2;PMS_P1;PMS_P2;Temp;Humidity;BMP_temperature;BMP_pressure;BME280_temperature;BME280_humidity;BME280_pressure;Samples;Min_cycle;Max_cycle;Signal;HPM_P1;HPM_P2
2024/04/12 00:01:20;;;;;;;23.27;19.03;;;13.60;99.90;;;;;;5414729;26;20496;-64
2024/04/12 00:03:52;;;;;;;24.57;19.57;;;13.60;99.90;;;;;;5420360;26;21096;-63
2024/04/12 00:06:20;;;;;;;23.80;19.33;;;13.60;99.90;;;;;;5420577;26;21297;-65
2024/04/12 00:08:50;;;;;;;23.33;19.70;;;13.60;99.90;;;;;;5413893;26;21157;-65
2024/04/12 00:11:19;;;;;;;24.40;20.40;;;13.60;99.90;;;;;;5412056;26;20505;-66
2024/04/12 00:13:52;;;;;;;24.80;20.20;;;13.60;99.90;;;;;;5417924;26;20481;-63
2024/04/12 00:16:23;;;;;;;23.77;19.17;;;13.60;99.90;;;;;;5421773;26;20481;-64
2024/04/12 00:19:07;;;;;;;20.03;17.40;;;13.50;99.90;;;;;;5415954;26;20928;-63
2024/04/12 00:21:37;;;;;;;20.60;17.97;;;13.60;99.90;;;;;;5420088;26;21559;-64
2024/04/12 00:24:10;;;;;;;22.63;18.70;;;13.60;99.90;;;;;;5416989;26;20473;-65
2024/04/12 00:26:40;;;;;;;21.67;17.57;;;13.60;99.90;;;;;;5422146;26;20623;-64
2024/04/12 00:29:25;;;;;;;20.83;18.10;;;13.60;99.90;;;;;;5417613;26;20483;-66
2024/04/12 00:31:54;;;;;;;22.33;17.07;;;13.60;99.90;;;;;;5418150;26;20493;-66
2024/04/12 00:34:26;;;;;;;20.83;17.57;;;13.60;99.90;;;;;;5414412;26;20485;-64
2024/04/12 00:36:56;;;;;;;21.07;16.97;;;13.60;99.90;;;;;;5410529;26;20478;-64
2024/04/12 00:39:38;;;;;;;24.27;17.17;;;13.60;99.90;;;;;;5415401;26;20537;-64
2024/04/12 00:42:07;;;;;;;20.60;17.20;;;13.60;99.90;;;;;;5411410;26;20542;-64
2024/04/12 00:44:40;;;;;;;19.67;16.70;;;13.60;99.90;;;;;;5413479;26;20532;-64
2024/04/12 00:47:10;;;;;;;18.60;16.57;;;13.60;99.90;;;;;;5418712;26;20923;-64
2024/04/12 00:49:49;;;;;;;22.47;17.40;;;13.60;99.90;;;;;;5412793;26;20591;-63
2024/04/12 00:52:22;;;;;;;16.60;14.13;;;13.60;99.90;;;;;;5416104;26;20480;-65
2024/04/12 00:55:01;;;;;;;20.20;16.60;;;13.70;99.90;;;;;;5416660;26;20489;-64
2024/04/12 00:57:35;;;;;;;19.47;17.23;;;13.70;99.90;;;;;;5426097;26;20950;-66
2024/04/12 01:00:08;;;;;;;19.30;16.17;;;13.60;99.90;;;;;;5417599;26;20525;-63
2024/04/12 01:02:39;;;;;;;18.67;16.57;;;13.60;99.90;;;;;;5415131;26;20588;-64
2024/04/12 01:05:16;;;;;;;18.10;16.20;;;13.60;99.90;;;;;;5423276;26;20826;-64
2024/04/12 01:07:48;;;;;;;19.33;15.27;;;13.50;99.90;;;;;;5409556;26;20540;-63
2024/04/12 01:10:24;;;;;;;17.60;15.77;;;13.50;99.90;;;;;;5421710;26;20483;-64
2024/04/12 01:12:55;;;;;;;18.97;16.77;;;13.50;99.90;;;;;;5416204;26;20484;-64
2024/04/12 01:15:29;;;;;;;17.70;15.53;;;13.50;99.90;;;;;;5419185;26;20489;-65
2024/04/12 01:17:56;;;;;;;16.97;15.17;;;13.50;99.90;;;;;;5424070;26;20478;-63
2024/04/12 01:20:32;;;;;;;16.67;14.87;;;13.60;99.90;;;;;;5417709;26;20538;-64
2024/04/12 01:22:59;;;;;;;16.57;13.73;;;13.50;99.90;;;;;;5414231;26;21080;-64
2024/04/12 01:25:32;;;;;;;17.73;14.33;;;13.50;99.90;;;;;;5420379;26;20471;-64
2024/04/12 01:28:02;;;;;;;19.30;14.60;;;13.50;99.90;;;;;;5421612;26;20558;-65
2024/04/12 01:30:34;;;;;;;15.73;12.93;;;13.50;99.90;;;;;;5419304;26;20525;-64
2024/04/12 01:33:06;;;;;;;18.03;14.40;;;13.50;99.90;;;;;;5416436;26;20549;-64
2024/04/12 01:35:36;;;;;;;17.77;14.43;;;13.40;99.90;;;;;;5415534;26;20477;-65
2024/04/12 01:38:16;;;;;;;16.40;13.70;;;13.40;99.90;;;;;;5423745;26;20546;-65
2024/04/12 01:40:56;;;;;;;17.47;13.13;;;13.40;99.90;;;;;;5413894;26;20485;-64
2024/04/12 01:43:27;;;;;;;15.63;13.63;;;13.40;99.90;;;;;;5411603;26;21333;-64
2024/04/12 01:45:57;;;;;;;17.53;14.30;;;13.50;99.90;;;;;;5423226;26;20943;-64
2024/04/12 01:48:25;;;;;;;16.40;13.83;;;13.50;99.90;;;;;;5416595;26;21286;-65
2024/04/12 01:50:55;;;;;;;17.67;13.90;;;13.40;99.90;;;;;;5419363;26;20536;-64
2024/04/12 01:53:23;;;;;;;17.03;14.00;;;13.40;99.90;;;;;;5422527;26;20548;-66
2024/04/12 01:55:58;;;;;;;17.93;14.10;;;13.50;99.90;;;;;;5420984;26;20490;-65
2024/04/12 01:58:26;;;;;;;19.40;14.83;;;13.50;99.90;;;;;;5418339;26;20478;-65
2024/04/12 02:01:04;;;;;;;16.20;13.43;;;13.50;99.90;;;;;;5416786;26;20493;-65
2024/04/12 02:03:31;;;;;;;19.40;14.20;;;13.50;99.90;;;;;;5422262;26;20999;-66
2024/04/12 02:06:05;;;;;;;17.37;13.83;;;13.50;99.90;;;;;;5420800;26;20535;-64
2024/04/12 02:08:32;;;;;;;16.83;14.17;;;13.50;99.90;;;;;;5422032;26;20588;-64
2024/04/12 02:11:06;;;;;;;17.93;14.27;;;13.50;99.90;;;;;;5421871;26;20478;-65
2024/04/12 02:13:37;;;;;;;17.70;14.17;;;13.50;99.90;;;;;;5417526;26;20536;-65
2024/04/12 02:16:10;;;;;;;19.77;15.97;;;13.50;99.90;;;;;;5417581;26;20533;-65
2024/04/12 02:18:39;;;;;;;19.67;16.40;;;13.50;99.90;;;;;;5411884;26;20547;-64
2024/04/12 02:21:10;;;;;;;22.20;17.47;;;13.60;99.90;;;;;;5420759;26;20808;-65
2024/04/12 02:23:38;;;;;;;19.80;16.50;;;13.60;99.90;;;;;;5416890;26;20541;-65
2024/04/12 02:26:11;;;;;;;22.03;18.33;;;13.60;99.90;;;;;;5423693;26;20487;-64
2024/04/12 02:28:40;;;;;;;22.53;17.80;;;13.60;99.90;;;;;;5416023;26;20477;-66
2024/04/12 02:31:12;;;;;;;22.93;18.30;;;13.60;99.90;;;;;;5415319;26;21054;-66
2024/04/12 02:33:42;;;;;;;22.23;18.37;;;13.60;99.90;;;;;;5421610;26;22516;-65
2024/04/12 02:36:16;;;;;;;23.63;18.60;;;13.60;99.90;;;;;;5415466;26;20948;-64
2024/04/12 02:38:49;;;;;;;25.43;19.13;;;13.60;99.90;;;;;;5409824;26;20482;-65
2024/04/12 02:41:21;;;;;;;24.53;19.07;;;13.60;99.90;;;;;;5408469;26;21049;-64
2024/04/12 02:43:51;;;;;;;25.70;19.27;;;13.60;99.90;;;;;;5420080;26;20494;-64
2024/04/12 02:46:22;;;;;;;27.27;21.47;;;13.60;99.90;;;;;;5416313;26;21171;-67
2024/04/12 02:48:50;;;;;;;24.17;19.63;;;13.60;99.90;;;;;;5412753;26;20568;-68
2024/04/12 02:51:22;;;;;;;25.23;19.47;;;13.60;99.90;;;;;;5409827;26;20500;-65
2024/04/12 02:53:50;;;;;;;23.57;19.07;;;13.50;99.90;;;;;;5417935;26;20555;-66
2024/04/12 02:56:25;;;;;;;23.10;18.50;;;13.50;99.90;;;;;;5423285;26;20481;-65
2024/04/12 02:58:52;;;;;;;25.57;19.30;;;13.50;99.90;;;;;;5419122;26;20527;-67
2024/04/12 03:01:24;;;;;;;22.13;17.97;;;13.60;99.90;;;;;;5404813;26;20485;-67
2024/04/12 03:03:55;;;;;;;22.40;18.07;;;13.50;99.90;;;;;;5420114;26;20493;-65
2024/04/12 03:06:26;;;;;;;23.37;19.67;;;13.60;99.90;;;;;;5423117;26;20479;-65
2024/04/12 03:08:59;;;;;;;22.90;18.33;;;13.50;99.90;;;;;;5423298;26;20914;-65
2024/04/12 03:11:37;;;;;;;24.73;19.27;;;13.50;99.90;;;;;;5423399;26;20522;-65
2024/04/12 03:14:08;;;;;;;23.97;18.83;;;13.50;99.90;;;;;;5423515;26;20523;-65
2024/04/12 03:16:41;;;;;;;21.70;17.50;;;13.40;99.90;;;;;;5413522;26;20523;-65
2024/04/12 03:19:10;;;;;;;20.73;17.17;;;13.50;99.90;;;;;;5415031;26;20541;-64
2024/04/12 03:21:43;;;;;;;20.23;17.00;;;13.50;99.90;;;;;;5422457;26;21025;-65
2024/04/12 03:24:10;;;;;;;21.47;16.20;;;13.60;99.90;;;;;;5424768;26;20589;-65
2024/04/12 03:26:45;;;;;;;19.17;15.80;;;13.50;99.90;;;;;;5421993;26;21385;-65
2024/04/12 03:29:12;;;;;;;21.70;16.60;;;13.40;99.90;;;;;;5417578;26;21085;-65
2024/04/12 03:31:46;;;;;;;20.47;15.23;;;13.40;99.90;;;;;;5418642;26;20489;-64
2024/04/12 03:34:14;;;;;;;19.83;15.30;;;13.40;99.90;;;;;;5421317;26;21054;-65
2024/04/12 03:37:16;;;;;;;18.50;15.80;;;13.40;99.90;;;;;;5417551;26;21076;-65
2024/04/12 03:39:47;;;;;;;20.23;15.80;;;13.40;99.90;;;;;;5417390;26;20481;-65
2024/04/12 03:42:19;;;;;;;19.43;15.60;;;13.40;99.90;;;;;;5422152;26;20835;-65
2024/04/12 03:44:48;;;;;;;18.80;14.67;;;13.30;99.90;;;;;;5422741;26;20543;-64
2024/04/12 03:47:18;;;;;;;18.23;14.60;;;13.40;99.90;;;;;;5422183;26;20567;-66
2024/04/12 03:49:50;;;;;;;18.10;13.93;;;13.40;99.90;;;;;;5423068;26;20570;-64
2024/04/12 03:52:20;;;;;;;19.73;14.27;;;13.40;99.90;;;;;;5414959;26;20605;-64
2024/04/12 03:54:48;;;;;;;19.90;15.00;;;13.30;99.90;;;;;;5419198;26;20489;-65
2024/04/12 03:57:26;;;;;;;19.50;15.40;;;13.30;99.90;;;;;;5420029;26;20475;-65
2024/04/12 03:59:57;;;;;;;18.63;14.00;;;13.30;99.90;;;;;;5421605;26;20566;-65
2024/04/12 04:02:29;;;;;;;21.00;14.67;;;13.30;99.90;;;;;;5409564;26;20477;-65
2024/04/12 04:05:13;;;;;;;20.47;14.83;;;13.30;99.90;;;;;;5421056;26;20482;-65
2024/04/12 04:07:41;;;;;;;19.37;15.10;;;13.30;99.90;;;;;;5420092;26;20470;-65
2024/04/12 04:10:14;;;;;;;23.60;17.10;;;13.30;99.90;;;;;;5421126;26;21074;-64
2024/04/12 04:12:49;;;;;;;23.03;15.70;;;13.40;99.90;;;;;;5422993;26;21428;-65
2024/04/12 04:15:17;;;;;;;23.53;16.07;;;13.30;99.90;;;;;;5415733;26;21192;-65
2024/04/12 04:17:49;;;;;;;20.10;15.33;;;13.30;99.90;;;;;;5417761;26;21090;-63
2024/04/12 04:20:17;;;;;;;24.43;16.60;;;13.30;99.90;;;;;;5421658;26;20945;-65
2024/04/12 04:22:49;;;;;;;22.17;16.30;;;13.30;99.90;;;;;;5416618;26;20597;-65
2024/04/12 04:25:19;;;;;;;21.00;16.03;;;13.30;99.90;;;;;;5423035;26;20960;-67
2024/04/12 04:27:54;;;;;;;23.83;17.77;;;13.30;99.90;;;;;;5421408;26;20571;-65
2024/04/12 04:30:25;;;;;;;25.17;18.00;;;13.30;99.90;;;;;;5416444;26;20538;-65
2024/04/12 04:32:55;;;;;;;23.67;18.30;;;13.30;99.90;;;;;;5419766;26;20565;-65
2024/04/12 04:35:27;;;;;;;30.80;20.17;;;13.30;99.90;;;;;;5421201;26;20489;-65
2024/04/12 04:37:57;;;;;;;28.27;20.40;;;13.30;99.90;;;;;;5420391;26;20605;-65
2024/04/12 04:40:25;;;;;;;24.53;19.23;;;13.30;99.90;;;;;;5416117;26;20469;-65
2024/04/12 04:42:57;;;;;;;30.10;20.27;;;13.30;99.90;;;;;;5418368;26;20525;-65
2024/04/12 04:45:31;;;;;;;27.50;20.00;;;13.30;99.90;;;;;;5418565;26;21011;-65
2024/04/12 04:48:01;;;;;;;26.67;20.47;;;13.30;99.90;;;;;;5425458;26;20533;-65
2024/04/12 04:50:28;;;;;;;28.17;20.80;;;13.30;99.90;;;;;;5418430;26;20473;-65
2024/04/12 04:52:58;;;;;;;26.10;19.13;;;13.30;99.90;;;;;;5415058;26;20546;-64
2024/04/12 04:55:26;;;;;;;26.50;21.03;;;13.30;99.90;;;;;;5420132;26;20490;-65
2024/04/12 04:58:00;;;;;;;22.63;18.17;;;13.30;99.90;;;;;;5423766;26;20526;-64
2024/04/12 05:00:40;;;;;;;25.70;19.47;;;13.30;99.90;;;;;;5418599;26;20533;-67
2024/04/12 05:03:10;;;;;;;27.30;19.10;;;13.30;99.90;;;;;;5401419;26;20493;-64
2024/04/12 05:05:39;;;;;;;25.73;19.40;;;13.30;99.90;;;;;;5418261;26;20624;-64
2024/04/12 05:08:09;;;;;;;27.73;20.13;;;13.30;99.90;;;;;;5422297;26;20916;-66
2024/04/12 05:10:39;;;;;;;27.60;18.90;;;13.30;99.90;;;;;;5414347;26;20849;-65
2024/04/12 05:13:12;;;;;;;24.90;18.90;;;13.30;99.90;;;;;;5411247;26;21311;-65
2024/04/12 05:15:51;;;;;;;25.40;19.10;;;13.30;99.90;;;;;;5419546;26;20485;-65
2024/04/12 05:18:22;;;;;;;23.67;18.67;;;13.30;99.90;;;;;;5417002;26;20636;-65
2024/04/12 05:20:49;;;;;;;28.20;20.07;;;13.30;99.90;;;;;;5409809;26;20522;-65
2024/04/12 05:23:20;;;;;;;24.00;18.57;;;13.20;99.90;;;;;;5408094;26;20505;-64
2024/04/12 05:25:49;;;;;;;25.00;18.70;;;13.20;99.90;;;;;;5416874;26;20538;-64
2024/04/12 05:28:22;;;;;;;25.00;19.20;;;13.30;99.90;;;;;;5410517;26;20485;-66
2024/04/12 05:30:50;;;;;;;25.87;19.47;;;13.30;99.90;;;;;;5413317;26;20541;-65
2024/04/12 05:33:23;;;;;;;27.33;20.47;;;13.40;99.90;;;;;;5410368;26;20540;-65
2024/04/12 05:35:51;;;;;;;28.73;21.30;;;13.50;99.90;;;;;;5408584;26;20483;-66
2024/04/12 05:38:23;;;;;;;25.57;20.27;;;13.50;99.90;;;;;;5414077;26;20549;-65
2024/04/12 05:40:52;;;;;;;26.03;19.70;;;13.50;99.90;;;;;;5417495;26;20529;-64
2024/04/12 05:43:25;;;;;;;27.60;20.10;;;13.40;99.90;;;;;;5415912;26;20607;-65
2024/04/12 05:45:53;;;;;;;29.40;22.10;;;13.40;99.90;;;;;;5421822;26;20475;-66
2024/04/12 05:48:24;;;;;;;26.33;20.40;;;13.40;99.90;;;;;;5421218;26;21202;-65
2024/04/12 05:50:55;;;;;;;30.00;20.87;;;13.40;99.90;;;;;;5415598;26;21166;-64
2024/04/12 05:53:29;;;;;;;25.20;20.03;;;13.40;99.90;;;;;;5417641;26;21132;-65
2024/04/12 05:58:50;;;;;;;30.20;20.70;;;13.40;99.90;;;;;;5423154;26;20531;-64
2024/04/12 06:01:19;;;;;;;24.27;19.10;;;13.40;99.90;;;;;;5425183;26;20895;-66
2024/04/12 06:03:53;;;;;;;27.77;20.43;;;13.40;99.90;;;;;;5421470;26;20539;-66
2024/04/12 06:06:22;;;;;;;23.00;18.63;;;13.50;99.90;;;;;;5413565;26;20547;-64
2024/04/12 06:08:52;;;;;;;27.43;20.90;;;13.50;99.90;;;;;;5425543;26;21030;-64
2024/04/12 06:11:25;;;;;;;24.20;18.17;;;13.50;99.90;;;;;;5422360;26;20494;-64
2024/04/12 06:13:55;;;;;;;24.90;18.47;;;13.50;99.90;;;;;;5422634;26;20482;-66
2024/04/12 06:16:27;;;;;;;24.87;19.10;;;13.60;99.90;;;;;;5418501;26;21378;-66
2024/04/12 06:18:58;;;;;;;27.37;20.10;;;13.60;99.90;;;;;;5420580;26;20525;-65
2024/04/12 06:21:30;;;;;;;24.03;18.67;;;13.60;99.90;;;;;;5415228;26;20566;-65
2024/04/12 06:23:59;;;;;;;23.00;19.07;;;13.60;99.90;;;;;;5422678;26;20475;-64
2024/04/12 06:26:29;;;;;;;23.67;18.83;;;13.60;99.90;;;;;;5422765;26;20486;-64
2024/04/12 06:29:05;;;;;;;22.27;18.60;;;13.60;99.90;;;;;;5424813;26;20475;-65
2024/04/12 06:31:38;;;;;;;23.70;19.27;;;13.60;99.90;;;;;;5423839;26;21073;-64
2024/04/12 06:34:05;;;;;;;24.60;17.90;;;13.60;99.90;;;;;;5422041;26;20538;-64
2024/04/12 06:36:35;;;;;;;23.00;18.17;;;13.60;99.90;;;;;;5420254;26;21148;-65
2024/04/12 06:39:04;;;;;;;22.60;17.90;;;13.60;99.90;;;;;;5422678;26;21053;-64
2024/04/12 06:41:35;;;;;;;20.47;16.70;;;13.70;99.90;;;;;;5422642;26;20485;-65
2024/04/12 06:44:05;;;;;;;21.33;17.30;;;13.70;99.90;;;;;;5423492;26;20612;-65
2024/04/12 06:46:35;;;;;;;23.33;18.20;;;13.70;99.90;;;;;;5418758;26;20801;-65
2024/04/12 06:49:07;;;;;;;20.73;17.50;;;13.60;99.90;;;;;;5417077;26;20601;-64
2024/04/12 06:51:43;;;;;;;22.83;17.10;;;13.70;99.90;;;;;;5422218;26;20497;-64
2024/04/12 06:54:11;;;;;;;23.20;17.20;;;13.60;99.90;;;;;;5420560;26;20849;-64
2024/04/12 06:56:41;;;;;;;23.80;18.40;;;13.60;99.90;;;;;;5425186;26;20541;-65
2024/04/12 06:59:13;;;;;;;21.20;17.80;;;13.70;99.90;;;;;;5423399;26;20486;-66
2024/04/12 07:01:43;;;;;;;23.70;17.30;;;13.70;99.90;;;;;;5423067;26;20489;-66
2024/04/12 07:04:11;;;;;;;22.30;17.23;;;13.70;99.90;;;;;;5416668;26;21065;-66
2024/04/12 07:06:41;;;;;;;23.87;16.50;;;13.70;99.90;;;;;;5421467;26;20539;-66
2024/04/12 07:09:08;;;;;;;19.33;16.47;;;13.70;99.90;;;;;;5420422;26;20543;-65
2024/04/12 07:11:40;;;;;;;21.40;16.47;;;13.70;99.90;;;;;;5416967;26;20518;-64
2024/04/12 07:14:10;;;;;;;20.50;16.33;;;13.80;99.90;;;;;;5423067;26;21400;-65
2024/04/12 07:16:42;;;;;;;21.67;15.97;;;13.80;99.90;;;;;;5415761;26;20481;-64
2024/04/12 07:19:12;;;;;;;21.53;15.27;;;13.80;99.90;;;;;;5416553;26;20479;-65
2024/04/12 07:21:42;;;;;;;17.57;15.07;;;13.80;99.90;;;;;;5423188;26;21147;-64
2024/04/12 07:24:09;;;;;;;18.53;15.60;;;13.90;99.90;;;;;;5417945;26;21062;-65
2024/04/12 07:26:39;;;;;;;18.50;15.50;;;13.90;99.90;;;;;;5425113;26;20557;-64
2024/04/12 07:29:06;;;;;;;18.30;15.17;;;13.90;99.90;;;;;;5416905;26;20478;-64
2024/04/12 07:31:39;;;;;;;17.60;14.60;;;13.90;99.90;;;;;;5419063;26;20665;-64
2024/04/12 07:34:06;;;;;;;17.13;14.40;;;13.90;99.90;;;;;;5420992;26;20529;-65
2024/04/12 07:36:39;;;;;;;17.53;14.97;;;13.90;99.90;;;;;;5418060;26;21073;-64
2024/04/12 07:39:07;;;;;;;18.27;15.03;;;14.00;99.90;;;;;;5419451;26;20965;-64
2024/04/12 07:41:48;;;;;;;19.90;16.10;;;14.00;99.90;;;;;;5422518;26;20566;-65
2024/04/12 07:44:16;;;;;;;16.87;15.07;;;14.00;99.90;;;;;;5413723;26;20534;-65
2024/04/12 07:46:51;;;;;;;16.07;13.87;;;14.00;99.90;;;;;;5413149;26;20534;-66
2024/04/12 07:49:19;;;;;;;17.10;13.37;;;14.10;99.90;;;;;;5417690;26;20572;-62
2024/04/12 07:51:50;;;;;;;18.77;14.20;;;14.10;99.90;;;;;;5422205;26;20569;-64
2024/04/12 07:54:17;;;;;;;16.67;14.23;;;14.20;99.90;;;;;;5415567;26;21127;-64
2024/04/12 07:56:49;;;;;;;16.70;14.00;;;14.20;99.90;;;;;;5422014;26;20532;-63
2024/04/12 07:59:17;;;;;;;16.37;13.10;;;14.30;99.90;;;;;;5418939;26;20521;-63
2024/04/12 08:01:51;;;;;;;17.20;14.23;;;14.30;99.90;;;;;;5416929;26;20477;-62
2024/04/12 08:04:22;;;;;;;15.33;13.07;;;14.30;99.90;;;;;;5426951;26;20588;-65
2024/04/12 08:07:05;;;;;;;15.77;13.63;;;14.40;99.90;;;;;;5422198;26;20481;-67
2024/04/12 08:09:42;;;;;;;15.60;14.00;;;14.40;99.90;;;;;;5420304;26;20570;-65
2024/04/12 08:12:23;;;;;;;14.40;12.17;;;14.40;99.90;;;;;;5421285;26;21125;-63
2024/04/12 08:15:06;;;;;;;14.67;13.10;;;14.40;99.90;;;;;;5417687;26;20959;-64
2024/04/12 08:17:39;;;;;;;15.13;12.70;;;14.50;99.90;;;;;;5423290;26;20527;-63
2024/04/12 08:20:21;;;;;;;14.60;12.27;;;14.50;99.90;;;;;;5426643;26;21042;-62
2024/04/12 08:22:48;;;;;;;23.00;13.23;;;14.60;99.90;;;;;;5419645;26;20538;-63
2024/04/12 08:25:18;;;;;;;13.20;11.90;;;14.60;99.90;;;;;;5417292;26;20939;-63
2024/04/12 08:27:46;;;;;;;13.87;12.07;;;14.60;99.90;;;;;;5426547;26;20545;-63
2024/04/12 08:30:19;;;;;;;14.33;12.37;;;14.70;99.90;;;;;;5425960;26;21155;-63
2024/04/12 08:32:50;;;;;;;14.20;12.03;;;14.70;99.90;;;;;;5422567;26;21359;-62
2024/04/12 08:35:24;;;;;;;15.27;12.40;;;14.70;99.90;;;;;;5418016;26;20473;-63
2024/04/12 08:37:52;;;;;;;13.03;11.13;;;14.80;99.90;;;;;;5420442;26;20477;-63
2024/04/12 08:40:25;;;;;;;17.37;11.70;;;14.80;99.90;;;;;;5419878;26;20587;-64
2024/04/12 08:43:08;;;;;;;12.83;10.33;;;14.80;99.90;;;;;;5423340;26;20589;-62
2024/04/12 08:45:43;;;;;;;12.70;10.73;;;14.80;99.90;;;;;;5423289;26;20555;-63
2024/04/12 08:48:15;;;;;;;12.03;10.57;;;14.90;99.90;;;;;;5419517;26;20599;-63
2024/04/12 08:50:48;;;;;;;12.33;10.87;;;14.90;99.90;;;;;;5421785;26;20473;-63
2024/04/12 08:53:26;;;;;;;11.23;10.13;;;14.80;99.90;;;;;;5425342;26;21062;-63
2024/04/12 08:55:55;;;;;;;10.13;9.10;;;14.80;99.90;;;;;;5411421;26;20489;-62
2024/04/12 08:58:25;;;;;;;11.73;10.13;;;14.80;99.90;;;;;;5420931;26;20819;-64
2024/04/12 09:00:54;;;;;;;11.57;9.97;;;14.80;99.90;;;;;;5422800;26;20481;-63
2024/04/12 09:03:32;;;;;;;10.90;9.33;;;14.80;99.90;;;;;;5419198;26;20489;-63
2024/04/12 09:06:00;;;;;;;10.13;8.93;;;14.80;99.90;;;;;;5423579;26;20482;-62
2024/04/12 09:08:33;;;;;;;10.83;8.90;;;14.90;99.90;;;;;;5425106;26;20525;-65
2024/04/12 09:11:06;;;;;;;10.67;9.57;;;14.90;99.90;;;;;;5420352;26;20520;-62
2024/04/12 09:13:39;;;;;;;10.43;9.37;;;14.90;99.90;;;;;;5422534;26;20478;-63
2024/04/12 09:16:09;;;;;;;10.83;9.73;;;14.90;99.90;;;;;;5416237;26;20481;-64
2024/04/12 09:18:47;;;;;;;10.17;9.17;;;15.00;99.90;;;;;;5415153;26;20477;-63
2024/04/12 09:21:24;;;;;;;9.90;8.90;;;15.00;99.90;;;;;;5422150;26;20461;-63
2024/04/12 09:23:56;;;;;;;9.37;8.10;;;15.00;99.90;;;;;;5410646;26;20481;-63
2024/04/12 09:26:24;;;;;;;9.20;8.30;;;15.10;99.90;;;;;;5416916;26;20485;-63
2024/04/12 09:29:01;;;;;;;10.17;9.17;;;15.20;99.90;;;;;;5410827;26;20591;-63
2024/04/12 09:34:29;;;;;;;9.53;8.00;;;15.20;99.90;;;;;;5422221;26;20967;-64
2024/04/12 09:37:28;;;;;;;8.90;8.00;;;15.20;99.90;;;;;;5423571;26;20554;-63
2024/04/12 09:40:04;;;;;;;8.53;7.73;;;15.20;99.90;;;;;;5418889;26;20484;-63
2024/04/12 09:42:44;;;;;;;10.27;8.60;;;15.10;99.90;;;;;;5420941;26;21185;-62
2024/04/12 09:45:19;;;;;;;7.23;6.53;;;15.10;99.90;;;;;;5420653;26;20578;-65
2024/04/12 10:38:09;;;;;;;9.70;8.70;;;15.30;99.90;;;;;;5425493;26;20533;-70
2024/04/12 10:41:03;;;;;;;9.93;9.00;;;15.30;99.90;;;;;;5416663;26;20511;-69
2024/04/12 10:43:35;;;;;;;10.70;8.97;;;15.40;99.90;;;;;;5421904;26;21029;-68
2024/04/12 10:46:05;;;;;;;9.30;8.40;;;15.40;99.90;;;;;;5420065;26;20555;-68
2024/04/12 10:48:35;;;;;;;8.70;7.80;;;15.30;99.90;;;;;;5418955;26;20465;-65
2024/04/12 10:51:04;;;;;;;7.80;6.93;;;15.30;99.90;;;;;;5419590;26;20860;-70
2024/04/12 10:53:34;;;;;;;8.97;7.90;;;15.40;99.90;;;;;;5420663;26;20606;-71
2024/04/12 10:56:07;;;;;;;9.10;8.20;;;15.40;99.90;;;;;;5423279;26;20525;-69
2024/04/12 10:58:43;;;;;;;8.47;7.70;;;15.40;99.90;;;;;;5420225;26;20473;-65
2024/04/12 11:01:12;;;;;;;10.93;8.17;;;15.40;99.90;;;;;;5424331;26;20528;-63
2024/04/12 11:03:44;;;;;;;9.10;8.30;;;15.40;99.90;;;;;;5421367;26;21092;-69
2024/04/12 11:06:17;;;;;;;8.37;7.57;;;15.40;99.90;;;;;;5417263;26;20479;-69
2024/04/12 11:08:48;;;;;;;9.77;8.40;;;15.40;99.90;;;;;;5422044;26;20527;-69
2024/04/12 11:11:26;;;;;;;8.23;7.30;;;15.50;99.90;;;;;;5414827;26;20525;-65
2024/04/12 11:13:57;;;;;;;8.13;7.33;;;15.50;99.90;;;;;;5414988;26;21157;-65
2024/04/12 11:33:04;;;;;;;9.13;8.03;;;15.70;99.90;;;;;;5379026;26;20614;-66
2024/04/12 11:35:37;;;;;;;8.40;7.70;;;15.80;99.90;;;;;;5421064;26;20481;-65
2024/04/12 11:38:13;;;;;;;9.27;8.30;;;15.90;99.90;;;;;;5424775;26;20499;-67
2024/04/12 11:40:45;;;;;;;8.13;7.37;;;16.10;99.90;;;;;;5408514;26;20934;-65
2024/04/12 11:43:15;;;;;;;8.53;7.73;;;16.20;99.90;;;;;;5417335;26;21018;-66
2024/04/12 11:45:46;;;;;;;7.93;7.23;;;16.30;99.90;;;;;;5414511;26;20483;-65
2024/04/12 11:48:14;;;;;;;9.50;8.17;;;16.40;99.90;;;;;;5411628;26;20595;-67
2024/04/12 11:50:49;;;;;;;8.63;7.73;;;16.50;99.90;;;;;;5414409;26;20908;-65
2024/04/12 11:53:16;;;;;;;9.23;8.33;;;16.60;99.90;;;;;;5415007;26;20934;-71
2024/04/12 11:55:48;;;;;;;9.17;8.27;;;16.60;99.90;;;;;;5420303;26;20553;-71
2024/04/12 11:58:17;;;;;;;8.97;8.07;;;16.70;99.90;;;;;;5420973;26;20533;-71
2024/04/12 12:00:48;;;;;;;9.73;8.73;;;16.70;99.90;;;;;;5417742;26;20532;-68
2024/04/12 12:03:15;;;;;;;10.80;8.43;;;16.80;99.90;;;;;;5423231;26;21082;-68
2024/04/12 12:05:52;;;;;;;9.40;8.50;;;16.90;99.90;;;;;;5416393;26;20541;-69
2024/04/12 12:08:31;;;;;;;8.03;7.23;;;17.00;99.90;;;;;;5419469;26;20494;-69
2024/04/12 12:11:05;;;;;;;9.20;8.30;;;17.10;99.90;;;;;;5419090;26;20965;-69
2024/04/12 12:13:35;;;;;;;9.37;8.57;;;17.30;99.90;;;;;;5420695;26;20542;-68
2024/04/12 12:16:06;;;;;;;9.03;8.30;;;17.40;99.90;;;;;;5420298;26;20490;-69
2024/04/12 12:18:36;;;;;;;9.90;8.30;;;17.40;99.90;;;;;;5418490;26;20541;-70
2024/04/12 12:21:06;;;;;;;9.53;8.60;;;17.50;99.90;;;;;;5417028;26;21102;-69
2024/04/12 12:23:34;;;;;;;10.17;9.27;;;17.50;99.90;;;;;;5418166;26;20629;-69
2024/04/12 12:26:05;;;;;;;8.70;7.90;;;17.60;99.90;;;;;;5421658;26;20841;-70
2024/04/12 12:28:35;;;;;;;9.60;8.60;;;17.50;99.90;;;;;;5416571;26;20589;-70
2024/04/12 12:31:06;;;;;;;9.70;7.80;;;17.60;99.90;;;;;;5420172;26;20481;-72
2024/04/12 12:33:38;;;;;;;8.80;7.90;;;17.60;99.90;;;;;;5420777;26;20544;-72
2024/04/12 12:36:10;;;;;;;8.70;7.90;;;17.70;99.90;;;;;;5421962;26;20603;-69
2024/04/12 12:38:40;;;;;;;7.90;7.20;;;17.80;99.90;;;;;;5421434;26;20813;-69
2024/04/12 12:41:10;;;;;;;8.13;7.00;;;17.90;99.90;;;;;;5418840;26;21169;-70
2024/04/12 12:43:44;;;;;;;8.87;8.07;;;18.00;99.90;;;;;;5415283;26;20638;-69
2024/04/12 12:46:14;;;;;;;9.83;8.17;;;18.00;99.90;;;;;;5423868;26;20492;-68
2024/04/12 12:48:42;;;;;;;8.70;7.90;;;18.10;99.90;;;;;;5424905;26;23606;-69
2024/04/12 12:51:14;;;;;;;6.83;6.17;;;18.20;99.90;;;;;;5415289;26;20484;-71
2024/04/12 12:53:43;;;;;;;6.60;6.00;;;18.30;99.90;;;;;;5423186;26;21208;-71
2024/04/12 12:56:13;;;;;;;6.83;6.23;;;18.40;99.90;;;;;;5423614;26;20542;-68
2024/04/12 12:58:43;;;;;;;7.27;6.57;;;18.50;99.90;;;;;;5423800;26;20475;-67
2024/04/12 13:01:15;;;;;;;6.80;5.93;;;18.70;99.90;;;;;;5416700;26;20485;-66
2024/04/12 13:03:43;;;;;;;6.63;6.03;;;18.80;99.90;;;;;;5419062;26;20509;-67
2024/04/12 13:06:21;;;;;;;7.40;6.70;;;19.00;99.90;;;;;;5426044;26;20819;-66
2024/04/12 13:08:48;;;;;;;6.63;6.07;;;19.30;99.90;;;;;;5421688;26;20474;-67
2024/04/12 13:11:24;;;;;;;7.10;6.40;;;19.50;99.90;;;;;;5415252;26;20481;-67
2024/04/12 13:13:54;;;;;;;7.80;7.10;;;19.60;99.90;;;;;;5412907;26;20602;-68
2024/04/12 13:16:24;;;;;;;7.33;6.40;;;19.70;99.90;;;;;;5414124;26;20482;-69
2024/04/12 13:18:56;;;;;;;6.37;5.87;;;19.70;99.90;;;;;;5424337;26;21037;-66
2024/04/12 13:21:26;;;;;;;7.30;6.60;;;19.70;99.90;;;;;;5423136;26;20477;-67
2024/04/12 13:23:56;;;;;;;6.97;6.40;;;19.90;99.90;;;;;;5415143;26;20485;-63
2024/04/12 13:26:31;;;;;;;7.50;6.70;;;20.20;99.90;;;;;;5408028;26;20536;-65
2024/04/12 13:29:01;;;;;;;5.80;5.30;;;20.40;99.90;;;;;;5419352;26;21307;-66
2024/04/12 13:31:33;;;;;;;7.10;6.40;;;20.60;99.90;;;;;;5414062;26;20563;-66
2024/04/12 13:34:00;;;;;;;7.40;6.73;;;20.80;99.90;;;;;;5419460;26;21097;-63
2024/04/12 13:36:31;;;;;;;6.30;5.80;;;20.90;99.90;;;;;;5414879;26;20486;-66
2024/04/12 13:38:59;;;;;;;10.23;5.53;;;21.10;99.90;;;;;;5416068;26;21076;-67
2024/04/12 13:41:33;;;;;;;6.80;6.20;;;21.30;99.90;;;;;;5414108;26;20604;-69
2024/04/12 13:44:08;;;;;;;6.93;6.20;;;21.50;99.90;;;;;;5408789;26;20904;-67
2024/04/12 13:52:10;;;;;;;6.50;5.80;;;22.60;99.90;;;;;;5414545;26;20485;-67
2024/04/12 13:54:41;;;;;;;7.23;5.77;;;23.20;99.90;;;;;;5417007;26;20489;-70
2024/04/12 13:57:09;;;;;;;6.30;5.70;;;23.80;99.90;;;;;;5414215;26;20544;-68
2024/04/12 13:59:44;;;;;;;6.10;5.53;;;23.90;99.90;;;;;;5416316;26;20479;-67
2024/04/12 14:02:14;;;;;;;6.07;5.47;;;23.80;99.90;;;;;;5419591;26;20496;-67
2024/04/12 14:04:43;;;;;;;7.13;6.00;;;23.60;99.90;;;;;;5415275;26;20537;-68
2024/04/12 14:07:14;;;;;;;8.03;7.27;;;23.10;99.90;;;;;;5412398;26;20599;-66
2024/04/12 14:09:42;;;;;;;7.60;6.90;;;22.60;99.90;;;;;;5415899;26;21099;-66
2024/04/12 14:12:12;;;;;;;8.20;7.37;;;22.20;99.90;;;;;;5413573;26;20489;-68
2024/04/12 14:14:42;;;;;;;8.23;7.40;;;22.00;99.90;;;;;;5411900;26;20534;-66